sensor_id;sensor_type;location;lat;lon;timestamp;pressure;altitude;pressure_sealevel;temperature;humidity
50702;BME280;36670;50.094;8.496;2022-12-07T00:00:48;100489.72;;;6.51;66.11
50702;BME280;36670;50.094;8.496;2022-12-07T00:03:14;100490.47;;;6.32;66.13
50702;BME280;36670;50.094;8.496;2022-12-07T00:05:39;100487.56;;;6.53;65.95
50702;BME280;36670;50.094;8.496;2022-12-07T00:08:04;100486.56;;;6.47;66.11
50702;BME280;36670;50.094;8.496;2022-12-07T00:10:29;100479.47;;;6.39;66.23
50702;BME280;36670;50.094;8.496;2022-12-07T00:12:55;100480.78;;;6.30;66.10
50702;BME280;36670;50.094;8.496;2022-12-07T00:15:20;100479.84;;;6.43;67.00
50702;BME280;36670;50.094;8.496;2022-12-07T00:17:46;100477.03;;;6.18;66.46
50702;BME280;36670;50.094;8.496;2022-12-07T00:20:11;100476.94;;;6.38;66.25
50702;BME280;36670;50.094;8.496;2022-12-07T00:22:36;100464.13;;;6.25;66.90
50702;BME280;36670;50.094;8.496;2022-12-07T00:25:02;100461.97;;;5.88;67.68
50702;BME280;36670;50.094;8.496;2022-12-07T00:27:27;100458.53;;;6.13;66.67
50702;BME280;36670;50.094;8.496;2022-12-07T00:29:53;100446.19;;;6.29;66.41
50702;BME280;36670;50.094;8.496;2022-12-07T00:32:18;100443.66;;;6.27;66.56
50702;BME280;36670;50.094;8.496;2022-12-07T00:34:43;100445.75;;;6.32;66.49
50702;BME280;36670;50.094;8.496;2022-12-07T00:37:09;100442.06;;;6.45;66.30
50702;BME280;36670;50.094;8.496;2022-12-07T00:39:34;100439.91;;;6.54;65.74
50702;BME280;36670;50.094;8.496;2022-12-07T00:41:59;100441.31;;;6.31;66.26
50702;BME280;36670;50.094;8.496;2022-12-07T00:44:25;100449.50;;;6.38;66.27
50702;BME280;36670;50.094;8.496;2022-12-07T00:46:50;100426.94;;;6.36;65.48
50702;BME280;36670;50.094;8.496;2022-12-07T00:49:15;100436.06;;;6.29;66.14
50702;BME280;36670;50.094;8.496;2022-12-07T00:51:41;100426.88;;;6.17;66.08
50702;BME280;36670;50.094;8.496;2022-12-07T00:54:08;100426.03;;;6.17;66.17
50702;BME280;36670;50.094;8.496;2022-12-07T00:56:34;100441.13;;;6.26;65.95
50702;BME280;36670;50.094;8.496;2022-12-07T00:59:01;100447.63;;;6.31;65.81
50702;BME280;36670;50.094;8.496;2022-12-07T01:01:30;100448.00;;;6.42;66.11
50702;BME280;36670;50.094;8.496;2022-12-07T01:03:57;100438.06;;;6.15;65.67
50702;BME280;36670;50.094;8.496;2022-12-07T01:06:23;100444.16;;;6.18;66.56
50702;BME280;36670;50.094;8.496;2022-12-07T01:08:49;100447.56;;;6.13;66.36
50702;BME280;36670;50.094;8.496;2022-12-07T01:11:17;100434.25;;;6.17;66.12
50702;BME280;36670;50.094;8.496;2022-12-07T01:13:43;100435.75;;;6.12;66.47
50702;BME280;36670;50.094;8.496;2022-12-07T01:16:11;100429.94;;;6.27;66.17
50702;BME280;36670;50.094;8.496;2022-12-07T01:18:37;100420.56;;;6.17;66.14
50702;BME280;36670;50.094;8.496;2022-12-07T01:21:09;100422.84;;;6.20;66.06
50702;BME280;36670;50.094;8.496;2022-12-07T01:23:35;100422.88;;;6.13;66.17
50702;BME280;36670;50.094;8.496;2022-12-07T01:26:03;100423.91;;;6.19;66.13
50702;BME280;36670;50.094;8.496;2022-12-07T01:28:29;100426.19;;;6.22;66.06
50702;BME280;36670;50.094;8.496;2022-12-07T01:30:59;100421.00;;;6.07;66.90
50702;BME280;36670;50.094;8.496;2022-12-07T01:33:27;100430.69;;;6.09;66.70
50702;BME280;36670;50.094;8.496;2022-12-07T01:35:53;100435.63;;;6.32;66.44
50702;BME280;36670;50.094;8.496;2022-12-07T01:38:18;100437.13;;;6.28;66.44
50702;BME280;36670;50.094;8.496;2022-12-07T01:40:44;100433.44;;;6.41;66.14
50702;BME280;36670;50.094;8.496;2022-12-07T01:43:17;100426.69;;;6.12;66.97
50702;BME280;36670;50.094;8.496;2022-12-07T01:45:44;100435.28;;;6.22;67.39
50702;BME280;36670;50.094;8.496;2022-12-07T01:48:11;100428.47;;;6.25;66.88
50702;BME280;36670;50.094;8.496;2022-12-07T01:50:38;100425.19;;;6.16;66.76
50702;BME280;36670;50.094;8.496;2022-12-07T01:53:06;100428.47;;;6.25;66.60
50702;BME280;36670;50.094;8.496;2022-12-07T01:55:35;100423.94;;;6.12;66.53
50702;BME280;36670;50.094;8.496;2022-12-07T01:58:03;100427.31;;;6.14;66.98
50702;BME280;36670;50.094;8.496;2022-12-07T02:00:28;100430.16;;;6.26;66.97
50702;BME280;36670;50.094;8.496;2022-12-07T02:02:57;100427.22;;;6.27;66.56
50702;BME280;36670;50.094;8.496;2022-12-07T02:05:25;100424.16;;;6.10;66.98
50702;BME280;36670;50.094;8.496;2022-12-07T02:07:53;100426.78;;;6.30;66.98
50702;BME280;36670;50.094;8.496;2022-12-07T02:10:26;100422.19;;;6.49;66.87
50702;BME280;36670;50.094;8.496;2022-12-07T02:13:01;100417.91;;;6.60;66.51
50702;BME280;36670;50.094;8.496;2022-12-07T02:24:24;100399.38;;;6.56;66.63
50702;BME280;36670;50.094;8.496;2022-12-07T02:27:23;100401.56;;;6.15;67.41
50702;BME280;36670;50.094;8.496;2022-12-07T02:30:01;100402.09;;;5.92;68.04
50702;BME280;36670;50.094;8.496;2022-12-07T02:35:17;100399.53;;;6.04;67.63
50702;BME280;36670;50.094;8.496;2022-12-07T02:45:45;100398.00;;;6.40;67.80
50702;BME280;36670;50.094;8.496;2022-12-07T02:48:14;100396.50;;;6.44;67.85
50702;BME280;36670;50.094;8.496;2022-12-07T02:50:48;100396.28;;;6.45;67.61
50702;BME280;36670;50.094;8.496;2022-12-07T02:53:32;100397.19;;;6.39;67.38
50702;BME280;36670;50.094;8.496;2022-12-07T02:56:27;100397.03;;;6.27;67.55
50702;BME280;36670;50.094;8.496;2022-12-07T02:59:15;100389.91;;;6.26;67.90
50702;BME280;36670;50.094;8.496;2022-12-07T03:07:29;100376.25;;;6.45;67.50
50702;BME280;36670;50.094;8.496;2022-12-07T03:10:08;100379.59;;;6.47;67.80
50702;BME280;36670;50.094;8.496;2022-12-07T03:15:26;100370.75;;;6.20;67.36
50702;BME280;36670;50.094;8.496;2022-12-07T03:17:55;100371.13;;;6.23;67.57
50702;BME280;36670;50.094;8.496;2022-12-07T03:20:24;100372.97;;;6.36;67.69
50702;BME280;36670;50.094;8.496;2022-12-07T03:22:51;100370.88;;;6.31;67.68
50702;BME280;36670;50.094;8.496;2022-12-07T03:25:18;100372.06;;;6.42;67.60
50702;BME280;36670;50.094;8.496;2022-12-07T03:27:53;100371.22;;;6.42;67.51
50702;BME280;36670;50.094;8.496;2022-12-07T03:30:23;100371.59;;;6.20;67.77
50702;BME280;36670;50.094;8.496;2022-12-07T03:32:50;100367.38;;;6.18;68.13
50702;BME280;36670;50.094;8.496;2022-12-07T03:35:40;100364.31;;;6.32;67.51
50702;BME280;36670;50.094;8.496;2022-12-07T03:38:17;100358.00;;;6.32;67.45
50702;BME280;36670;50.094;8.496;2022-12-07T03:41:02;100371.06;;;6.05;68.43
50702;BME280;36670;50.094;8.496;2022-12-07T03:43:30;100364.00;;;6.22;67.77
50702;BME280;36670;50.094;8.496;2022-12-07T03:46:06;100362.41;;;6.33;67.89
50702;BME280;36670;50.094;8.496;2022-12-07T03:48:38;100359.56;;;6.21;68.35
50702;BME280;36670;50.094;8.496;2022-12-07T03:51:13;100359.13;;;6.49;67.89
50702;BME280;36670;50.094;8.496;2022-12-07T03:53:48;100367.81;;;6.46;67.58
50702;BME280;36670;50.094;8.496;2022-12-07T03:56:17;100353.25;;;6.46;68.02
50702;BME280;36670;50.094;8.496;2022-12-07T03:58:43;100353.56;;;6.56;68.24
50702;BME280;36670;50.094;8.496;2022-12-07T04:01:08;100345.03;;;6.46;67.95
50702;BME280;36670;50.094;8.496;2022-12-07T04:03:34;100364.03;;;6.66;67.25
50702;BME280;36670;50.094;8.496;2022-12-07T04:05:59;100350.09;;;6.68;67.44
50702;BME280;36670;50.094;8.496;2022-12-07T04:08:25;100353.75;;;6.61;67.56
50702;BME280;36670;50.094;8.496;2022-12-07T04:10:51;100358.88;;;6.51;67.46
50702;BME280;36670;50.094;8.496;2022-12-07T04:13:16;100357.78;;;6.59;67.72
50702;BME280;36670;50.094;8.496;2022-12-07T04:15:41;100365.78;;;6.60;67.88
50702;BME280;36670;50.094;8.496;2022-12-07T04:18:06;100355.97;;;6.71;67.66
50702;BME280;36670;50.094;8.496;2022-12-07T04:20:32;100349.56;;;6.77;67.61
50702;BME280;36670;50.094;8.496;2022-12-07T04:22:57;100359.19;;;6.68;67.77
50702;BME280;36670;50.094;8.496;2022-12-07T04:25:23;100359.28;;;6.55;68.09
50702;BME280;36670;50.094;8.496;2022-12-07T04:27:48;100362.06;;;6.73;66.83
50702;BME280;36670;50.094;8.496;2022-12-07T04:30:13;100363.81;;;6.68;67.67
50702;BME280;36670;50.094;8.496;2022-12-07T04:32:38;100346.38;;;6.37;68.04
50702;BME280;36670;50.094;8.496;2022-12-07T04:35:05;100350.66;;;6.51;67.70
50702;BME280;36670;50.094;8.496;2022-12-07T04:37:30;100349.00;;;6.50;67.63
50702;BME280;36670;50.094;8.496;2022-12-07T04:39:55;100355.41;;;6.37;68.19
50702;BME280;36670;50.094;8.496;2022-12-07T04:42:21;100355.38;;;6.44;67.44
50702;BME280;36670;50.094;8.496;2022-12-07T04:44:46;100351.53;;;6.52;68.17
50702;BME280;36670;50.094;8.496;2022-12-07T04:47:11;100344.34;;;6.51;68.31
50702;BME280;36670;50.094;8.496;2022-12-07T04:49:37;100342.28;;;6.46;67.94
50702;BME280;36670;50.094;8.496;2022-12-07T04:52:02;100346.78;;;6.40;68.00
50702;BME280;36670;50.094;8.496;2022-12-07T04:54:28;100348.78;;;6.26;68.88
50702;BME280;36670;50.094;8.496;2022-12-07T04:56:53;100350.38;;;6.34;68.74
50702;BME280;36670;50.094;8.496;2022-12-07T04:59:19;100347.09;;;6.51;68.54
50702;BME280;36670;50.094;8.496;2022-12-07T05:01:44;100348.81;;;6.45;67.95
50702;BME280;36670;50.094;8.496;2022-12-07T05:04:10;100340.09;;;6.29;68.97
50702;BME280;36670;50.094;8.496;2022-12-07T05:06:35;100338.59;;;6.34;68.65
50702;BME280;36670;50.094;8.496;2022-12-07T05:09:01;100335.25;;;6.25;69.20
50702;BME280;36670;50.094;8.496;2022-12-07T05:11:26;100345.84;;;6.46;69.13
50702;BME280;36670;50.094;8.496;2022-12-07T05:14:10;100346.97;;;6.64;68.55
50702;BME280;36670;50.094;8.496;2022-12-07T05:16:37;100343.13;;;6.46;68.53
50702;BME280;36670;50.094;8.496;2022-12-07T05:19:03;100346.69;;;6.47;68.92
50702;BME280;36670;50.094;8.496;2022-12-07T05:21:29;100347.53;;;6.47;68.76
50702;BME280;36670;50.094;8.496;2022-12-07T05:23:54;100347.41;;;6.61;68.26
50702;BME280;36670;50.094;8.496;2022-12-07T05:26:20;100342.72;;;6.68;68.33
50702;BME280;36670;50.094;8.496;2022-12-07T05:28:50;100350.59;;;6.58;68.71
50702;BME280;36670;50.094;8.496;2022-12-07T05:31:15;100341.59;;;6.51;69.16
50702;BME280;36670;50.094;8.496;2022-12-07T05:33:40;100345.75;;;6.60;68.41
50702;BME280;36670;50.094;8.496;2022-12-07T05:36:06;100343.16;;;6.65;68.22
50702;BME280;36670;50.094;8.496;2022-12-07T05:38:32;100336.38;;;6.86;68.26
50702;BME280;36670;50.094;8.496;2022-12-07T05:41:05;100339.41;;;6.59;68.22
50702;BME280;36670;50.094;8.496;2022-12-07T05:43:32;100332.19;;;6.40;68.95
50702;BME280;36670;50.094;8.496;2022-12-07T05:45:58;100334.59;;;6.55;68.15
50702;BME280;36670;50.094;8.496;2022-12-07T05:48:24;100339.03;;;6.56;68.59
50702;BME280;36670;50.094;8.496;2022-12-07T05:50:50;100327.78;;;6.64;68.09
50702;BME280;36670;50.094;8.496;2022-12-07T05:53:16;100337.66;;;6.65;68.00
50702;BME280;36670;50.094;8.496;2022-12-07T05:55:43;100328.34;;;6.47;68.61
50702;BME280;36670;50.094;8.496;2022-12-07T05:58:09;100342.78;;;6.61;68.51
50702;BME280;36670;50.094;8.496;2022-12-07T06:00:56;100348.50;;;6.60;68.67
50702;BME280;36670;50.094;8.496;2022-12-07T06:03:22;100346.13;;;6.63;68.59
50702;BME280;36670;50.094;8.496;2022-12-07T06:05:47;100338.94;;;6.62;68.26
50702;BME280;36670;50.094;8.496;2022-12-07T06:08:13;100339.66;;;6.76;68.20
50702;BME280;36670;50.094;8.496;2022-12-07T06:10:40;100339.50;;;6.71;68.11
50702;BME280;36670;50.094;8.496;2022-12-07T06:13:05;100338.47;;;6.72;67.98
50702;BME280;36670;50.094;8.496;2022-12-07T06:15:30;100337.84;;;6.70;68.27
50702;BME280;36670;50.094;8.496;2022-12-07T06:17:56;100331.53;;;6.70;68.59
50702;BME280;36670;50.094;8.496;2022-12-07T06:20:21;100334.56;;;6.80;68.05
50702;BME280;36670;50.094;8.496;2022-12-07T06:22:46;100343.97;;;6.91;68.09
50702;BME280;36670;50.094;8.496;2022-12-07T06:25:12;100334.56;;;6.80;68.12
50702;BME280;36670;50.094;8.496;2022-12-07T06:27:37;100345.94;;;7.02;67.39
50702;BME280;36670;50.094;8.496;2022-12-07T06:30:03;100344.63;;;6.86;67.18
50702;BME280;36670;50.094;8.496;2022-12-07T06:32:32;100336.78;;;6.90;67.84
50702;BME280;36670;50.094;8.496;2022-12-07T06:34:58;100338.06;;;6.87;68.11
50702;BME280;36670;50.094;8.496;2022-12-07T06:37:23;100336.47;;;6.79;68.05
50702;BME280;36670;50.094;8.496;2022-12-07T06:39:49;100343.63;;;6.80;68.44
50702;BME280;36670;50.094;8.496;2022-12-07T06:42:14;100350.44;;;6.78;68.32
50702;BME280;36670;50.094;8.496;2022-12-07T06:44:39;100342.66;;;6.93;67.85
50702;BME280;36670;50.094;8.496;2022-12-07T06:47:04;100345.06;;;6.64;67.81
50702;BME280;36670;50.094;8.496;2022-12-07T06:49:30;100336.53;;;6.73;67.91
50702;BME280;36670;50.094;8.496;2022-12-07T06:51:55;100345.56;;;6.55;68.56
50702;BME280;36670;50.094;8.496;2022-12-07T06:54:21;100344.16;;;6.45;68.44
50702;BME280;36670;50.094;8.496;2022-12-07T06:56:46;100344.16;;;6.45;68.69
50702;BME280;36670;50.094;8.496;2022-12-07T06:59:11;100335.81;;;6.40;68.60
50702;BME280;36670;50.094;8.496;2022-12-07T07:01:37;100346.63;;;6.54;68.29
50702;BME280;36670;50.094;8.496;2022-12-07T07:04:03;100336.41;;;6.42;68.58
50702;BME280;36670;50.094;8.496;2022-12-07T07:06:28;100345.81;;;6.53;68.26
50702;BME280;36670;50.094;8.496;2022-12-07T07:08:53;100352.28;;;6.59;67.84
50702;BME280;36670;50.094;8.496;2022-12-07T07:11:19;100361.34;;;6.59;68.33
50702;BME280;36670;50.094;8.496;2022-12-07T07:13:45;100350.50;;;6.46;68.23
50702;BME280;36670;50.094;8.496;2022-12-07T07:16:10;100355.13;;;6.45;68.54
50702;BME280;36670;50.094;8.496;2022-12-07T07:18:35;100353.19;;;6.53;68.22
50702;BME280;36670;50.094;8.496;2022-12-07T07:21:01;100358.16;;;6.62;68.51
50702;BME280;36670;50.094;8.496;2022-12-07T07:23:26;100364.72;;;6.36;68.31
50702;BME280;36670;50.094;8.496;2022-12-07T07:25:52;100371.72;;;6.32;68.54
50702;BME280;36670;50.094;8.496;2022-12-07T07:28:17;100367.66;;;6.35;68.77
50702;BME280;36670;50.094;8.496;2022-12-07T07:30:43;100369.22;;;6.56;67.91
50702;BME280;36670;50.094;8.496;2022-12-07T07:33:09;100387.63;;;6.74;67.64
50702;BME280;36670;50.094;8.496;2022-12-07T07:35:34;100371.94;;;6.56;67.68
50702;BME280;36670;50.094;8.496;2022-12-07T07:38:01;100377.44;;;6.56;67.63
50702;BME280;36670;50.094;8.496;2022-12-07T07:40:27;100381.63;;;6.58;67.64
50702;BME280;36670;50.094;8.496;2022-12-07T07:42:57;100384.47;;;6.70;67.09
50702;BME280;36670;50.094;8.496;2022-12-07T07:45:24;100376.34;;;6.82;67.54
50702;BME280;36670;50.094;8.496;2022-12-07T07:47:50;100384.66;;;6.94;67.29
50702;BME280;36670;50.094;8.496;2022-12-07T07:50:18;100373.00;;;6.98;66.89
50702;BME280;36670;50.094;8.496;2022-12-07T07:52:44;100379.88;;;6.89;67.81
50702;BME280;36670;50.094;8.496;2022-12-07T07:55:10;100380.19;;;6.56;68.90
50702;BME280;36670;50.094;8.496;2022-12-07T07:57:36;100383.47;;;6.64;68.31
50702;BME280;36670;50.094;8.496;2022-12-07T08:00:08;100384.53;;;6.63;68.60
50702;BME280;36670;50.094;8.496;2022-12-07T08:02:34;100385.44;;;6.57;68.32
50702;BME280;36670;50.094;8.496;2022-12-07T08:08:03;100381.31;;;6.66;68.45
50702;BME280;36670;50.094;8.496;2022-12-07T08:10:29;100388.44;;;6.74;67.74
50702;BME280;36670;50.094;8.496;2022-12-07T08:12:54;100387.31;;;6.57;68.43
50702;BME280;36670;50.094;8.496;2022-12-07T08:15:40;100382.50;;;6.77;68.01
50702;BME280;36670;50.094;8.496;2022-12-07T08:18:06;100382.69;;;7.01;67.32
50702;BME280;36670;50.094;8.496;2022-12-07T08:20:32;100388.34;;;6.88;67.82
50702;BME280;36670;50.094;8.496;2022-12-07T08:22:58;100389.84;;;6.83;67.97
50702;BME280;36670;50.094;8.496;2022-12-07T08:25:27;100387.72;;;6.86;68.57
50702;BME280;36670;50.094;8.496;2022-12-07T08:27:53;100384.09;;;7.10;68.57
50702;BME280;36670;50.094;8.496;2022-12-07T08:30:20;100380.56;;;7.22;67.58
50702;BME280;36670;50.094;8.496;2022-12-07T08:32:46;100392.19;;;7.24;66.87
50702;BME280;36670;50.094;8.496;2022-12-07T08:35:14;100386.53;;;7.37;66.61
50702;BME280;36670;50.094;8.496;2022-12-07T08:37:40;100386.16;;;7.33;67.12
50702;BME280;36670;50.094;8.496;2022-12-07T08:40:08;100383.63;;;7.32;66.91
50702;BME280;36670;50.094;8.496;2022-12-07T08:42:34;100388.81;;;7.40;66.29
50702;BME280;36670;50.094;8.496;2022-12-07T08:45:12;100386.28;;;7.02;66.78
50702;BME280;36670;50.094;8.496;2022-12-07T08:47:42;100394.03;;;6.86;67.82
50702;BME280;36670;50.094;8.496;2022-12-07T08:50:10;100392.44;;;6.97;67.19
50702;BME280;36670;50.094;8.496;2022-12-07T08:52:36;100395.00;;;7.17;66.96
50702;BME280;36670;50.094;8.496;2022-12-07T08:55:03;100400.25;;;7.18;66.98
50702;BME280;36670;50.094;8.496;2022-12-07T08:57:32;100398.50;;;7.24;67.08
50702;BME280;36670;50.094;8.496;2022-12-07T08:59:58;100393.47;;;7.40;66.47
50702;BME280;36670;50.094;8.496;2022-12-07T09:02:24;100391.66;;;7.33;66.99
50702;BME280;36670;50.094;8.496;2022-12-07T09:04:49;100395.69;;;7.49;66.51
50702;BME280;36670;50.094;8.496;2022-12-07T09:07:15;100393.53;;;7.33;67.10
50702;BME280;36670;50.094;8.496;2022-12-07T09:09:41;100390.19;;;7.49;66.90
50702;BME280;36670;50.094;8.496;2022-12-07T09:12:07;100388.81;;;7.40;67.10
50702;BME280;36670;50.094;8.496;2022-12-07T09:14:32;100387.44;;;7.49;66.65
50702;BME280;36670;50.094;8.496;2022-12-07T09:17:06;100393.28;;;7.72;66.70
50702;BME280;36670;50.094;8.496;2022-12-07T09:19:32;100376.94;;;7.77;66.67
50702;BME280;36670;50.094;8.496;2022-12-07T09:21:57;100406.81;;;8.03;66.03
50702;BME280;36670;50.094;8.496;2022-12-07T09:24:22;100399.91;;;8.13;66.02
50702;BME280;36670;50.094;8.496;2022-12-07T09:26:48;100403.66;;;8.30;66.00
50702;BME280;36670;50.094;8.496;2022-12-07T09:29:13;100391.25;;;8.40;65.79
50702;BME280;36670;50.094;8.496;2022-12-07T09:31:38;100399.03;;;8.43;66.05
50702;BME280;36670;50.094;8.496;2022-12-07T09:34:04;100399.44;;;8.46;65.31
50702;BME280;36670;50.094;8.496;2022-12-07T09:36:31;100400.81;;;8.37;64.94
50702;BME280;36670;50.094;8.496;2022-12-07T09:38:56;100395.97;;;8.51;65.28
50702;BME280;36670;50.094;8.496;2022-12-07T09:41:24;100412.03;;;8.66;64.73
50702;BME280;36670;50.094;8.496;2022-12-07T09:43:50;100408.13;;;8.43;64.12
50702;BME280;36670;50.094;8.496;2022-12-07T09:46:19;100405.78;;;8.47;64.76
50702;BME280;36670;50.094;8.496;2022-12-07T09:48:46;100414.72;;;8.42;64.38
50702;BME280;36670;50.094;8.496;2022-12-07T09:51:23;100407.94;;;8.57;64.16
50702;BME280;36670;50.094;8.496;2022-12-07T09:53:50;100410.09;;;8.54;64.12
50702;BME280;36670;50.094;8.496;2022-12-07T09:56:17;100404.88;;;8.34;63.90
50702;BME280;36670;50.094;8.496;2022-12-07T09:58:44;100394.69;;;8.35;64.00
50702;BME280;36670;50.094;8.496;2022-12-07T10:01:16;100390.59;;;8.56;63.91
50702;BME280;36670;50.094;8.496;2022-12-07T10:03:56;100388.81;;;8.74;63.93
50702;BME280;36670;50.094;8.496;2022-12-07T10:06:24;100387.16;;;8.96;63.35
50702;BME280;36670;50.094;8.496;2022-12-07T10:08:49;100384.97;;;9.34;63.62
50702;BME280;36670;50.094;8.496;2022-12-07T10:11:15;100379.34;;;9.29;61.95
50702;BME280;36670;50.094;8.496;2022-12-07T10:13:49;100386.06;;;9.09;62.33
50702;BME280;36670;50.094;8.496;2022-12-07T10:18:50;100380.94;;;9.01;61.22
50702;BME280;36670;50.094;8.496;2022-12-07T10:21:18;100383.53;;;8.72;61.70
50702;BME280;36670;50.094;8.496;2022-12-07T10:24:24;100383.31;;;8.74;62.24
50702;BME280;36670;50.094;8.496;2022-12-07T10:26:52;100363.91;;;9.04;60.28
50702;BME280;36670;50.094;8.496;2022-12-07T10:32:04;100368.34;;;8.69;60.67
50702;BME280;36670;50.094;8.496;2022-12-07T10:34:36;100355.53;;;8.63;59.67
50702;BME280;36670;50.094;8.496;2022-12-07T10:39:54;100349.59;;;9.31;60.18
50702;BME280;36670;50.094;8.496;2022-12-07T10:44:45;100340.31;;;9.61;60.04
50702;BME280;36670;50.094;8.496;2022-12-07T10:53:03;100337.50;;;10.18;58.19
50702;BME280;36670;50.094;8.496;2022-12-07T10:59:13;100331.56;;;10.10;58.12
50702;BME280;36670;50.094;8.496;2022-12-07T11:02:23;100327.72;;;10.28;58.37
50702;BME280;36670;50.094;8.496;2022-12-07T11:04:59;100328.69;;;10.50;57.05
50702;BME280;36670;50.094;8.496;2022-12-07T11:07:38;100330.69;;;10.38;56.47
50702;BME280;36670;50.094;8.496;2022-12-07T11:10:26;100335.91;;;10.22;57.52
50702;BME280;36670;50.094;8.496;2022-12-07T11:13:04;100323.28;;;10.27;56.92
50702;BME280;36670;50.094;8.496;2022-12-07T11:18:27;100330.88;;;9.85;57.09
50702;BME280;36670;50.094;8.496;2022-12-07T11:21:11;100330.75;;;9.80;57.51
50702;BME280;36670;50.094;8.496;2022-12-07T11:24:08;100321.94;;;9.66;57.43
50702;BME280;36670;50.094;8.496;2022-12-07T11:38:14;100293.63;;;9.42;56.10
50702;BME280;36670;50.094;8.496;2022-12-07T11:40:43;100304.31;;;9.38;56.41
50702;BME280;36670;50.094;8.496;2022-12-07T11:43:21;100294.06;;;9.10;56.24
50702;BME280;36670;50.094;8.496;2022-12-07T11:46:05;100305.31;;;9.20;56.04
50702;BME280;36670;50.094;8.496;2022-12-07T11:48:34;100296.13;;;9.03;56.22
50702;BME280;36670;50.094;8.496;2022-12-07T11:51:02;100288.38;;;9.00;56.35
50702;BME280;36670;50.094;8.496;2022-12-07T11:53:39;100285.84;;;8.98;57.02
50702;BME280;36670;50.094;8.496;2022-12-07T11:56:20;100287.66;;;8.93;56.89
50702;BME280;36670;50.094;8.496;2022-12-07T11:58:57;100282.03;;;8.87;58.31
50702;BME280;36670;50.094;8.496;2022-12-07T12:04:35;100284.03;;;9.04;57.64
50702;BME280;36670;50.094;8.496;2022-12-07T12:07:06;100277.28;;;9.23;57.16
50702;BME280;36670;50.094;8.496;2022-12-07T12:09:43;100271.28;;;9.27;57.55
50702;BME280;36670;50.094;8.496;2022-12-07T12:12:52;100272.28;;;9.20;57.09
50702;BME280;36670;50.094;8.496;2022-12-07T12:18:16;100261.13;;;9.15;57.54
50702;BME280;36670;50.094;8.496;2022-12-07T12:20:58;100262.69;;;9.23;58.22
50702;BME280;36670;50.094;8.496;2022-12-07T12:23:39;100265.38;;;9.06;57.49
50702;BME280;36670;50.094;8.496;2022-12-07T12:26:08;100267.44;;;9.28;57.53
50702;BME280;36670;50.094;8.496;2022-12-07T12:28:42;100255.09;;;9.30;57.33
50702;BME280;36670;50.094;8.496;2022-12-07T12:31:29;100252.41;;;9.47;57.29
50702;BME280;36670;50.094;8.496;2022-12-07T12:33:58;100248.72;;;9.42;57.68
50702;BME280;36670;50.094;8.496;2022-12-07T12:47:01;100238.03;;;9.16;56.78
50702;BME280;36670;50.094;8.496;2022-12-07T12:49:43;100237.91;;;9.23;57.49
50702;BME280;36670;50.094;8.496;2022-12-07T12:55:13;100246.94;;;8.95;57.79
50702;BME280;36670;50.094;8.496;2022-12-07T12:57:44;100243.75;;;8.86;58.11
50702;BME280;36670;50.094;8.496;2022-12-07T13:00:18;100234.78;;;9.19;57.86
50702;BME280;36670;50.094;8.496;2022-12-07T13:02:54;100228.16;;;9.03;56.43
50702;BME280;36670;50.094;8.496;2022-12-07T13:05:23;100216.81;;;9.17;56.00
50702;BME280;36670;50.094;8.496;2022-12-07T13:07:53;100210.63;;;9.10;55.74
50702;BME280;36670;50.094;8.496;2022-12-07T13:15:38;100218.69;;;9.74;55.16
50702;BME280;36670;50.094;8.496;2022-12-07T13:20:47;100215.53;;;9.36;55.89
50702;BME280;36670;50.094;8.496;2022-12-07T13:23:16;100225.13;;;9.05;56.86
50702;BME280;36670;50.094;8.496;2022-12-07T13:25:59;100221.78;;;9.03;57.21
50702;BME280;36670;50.094;8.496;2022-12-07T13:28:32;100219.81;;;9.15;56.59
50702;BME280;36670;50.094;8.496;2022-12-07T13:31:04;100216.91;;;8.93;57.16
50702;BME280;36670;50.094;8.496;2022-12-07T13:33:35;100219.84;;;8.63;57.76
50702;BME280;36670;50.094;8.496;2022-12-07T13:36:01;100219.47;;;8.71;57.94
50702;BME280;36670;50.094;8.496;2022-12-07T13:38:34;100222.44;;;8.81;58.53
50702;BME280;36670;50.094;8.496;2022-12-07T13:41:12;100215.09;;;8.99;58.47
50702;BME280;36670;50.094;8.496;2022-12-07T13:43:54;100213.69;;;8.84;58.23
50702;BME280;36670;50.094;8.496;2022-12-07T13:46:25;100213.91;;;8.95;57.75
50702;BME280;36670;50.094;8.496;2022-12-07T13:48:52;100218.13;;;8.85;58.41
50702;BME280;36670;50.094;8.496;2022-12-07T13:51:26;100214.94;;;9.05;58.36
50702;BME280;36670;50.094;8.496;2022-12-07T13:53:54;100216.28;;;9.03;57.65
50702;BME280;36670;50.094;8.496;2022-12-07T13:56:31;100211.88;;;9.02;57.54
50702;BME280;36670;50.094;8.496;2022-12-07T13:58:58;100213.13;;;9.11;58.51
50702;BME280;36670;50.094;8.496;2022-12-07T14:01:24;100212.53;;;9.38;58.22
50702;BME280;36670;50.094;8.496;2022-12-07T14:03:50;100216.97;;;9.39;57.62
50702;BME280;36670;50.094;8.496;2022-12-07T14:06:23;100212.06;;;9.41;58.01
50702;BME280;36670;50.094;8.496;2022-12-07T14:09:17;100217.88;;;9.28;57.87
50702;BME280;36670;50.094;8.496;2022-12-07T14:11:43;100217.69;;;9.17;58.28
50702;BME280;36670;50.094;8.496;2022-12-07T14:14:16;100215.59;;;8.96;58.01
50702;BME280;36670;50.094;8.496;2022-12-07T14:16:43;100215.38;;;8.85;58.18
50702;BME280;36670;50.094;8.496;2022-12-07T14:22:15;100220.56;;;8.34;59.81
50702;BME280;36670;50.094;8.496;2022-12-07T14:24:44;100226.91;;;8.23;60.13
50702;BME280;36670;50.094;8.496;2022-12-07T14:27:20;100225.72;;;8.19;60.11
50702;BME280;36670;50.094;8.496;2022-12-07T14:29:47;100219.84;;;8.15;60.00
50702;BME280;36670;50.094;8.496;2022-12-07T14:32:22;100228.09;;;8.15;60.58
50702;BME280;36670;50.094;8.496;2022-12-07T14:37:28;100224.97;;;7.88;61.58
50702;BME280;36670;50.094;8.496;2022-12-07T14:39:55;100218.00;;;7.74;61.96
50702;BME280;36670;50.094;8.496;2022-12-07T14:42:23;100227.59;;;7.41;62.97
50702;BME280;36670;50.094;8.496;2022-12-07T14:44:49;100225.41;;;7.31;63.39
50702;BME280;36670;50.094;8.496;2022-12-07T14:47:15;100233.59;;;7.49;63.37
50702;BME280;36670;50.094;8.496;2022-12-07T14:49:40;100221.88;;;7.96;62.56